createdAt,value
2023-05-23T00:03:01.011Z,23.50
2023-05-23T00:15:01.396Z,23.30
2023-05-23T00:27:01.852Z,30.10
2023-05-23T00:39:02.295Z,25.50
2023-05-23T00:51:02.719Z,26.60
2023-05-23T01:03:03.312Z,28.00
2023-05-23T01:15:03.678Z,30.80
2023-05-23T01:27:04.132Z,27.10
2023-05-23T01:39:04.568Z,26.00
2023-05-23T01:51:04.961Z,25.20
2023-05-23T02:03:05.516Z,25.50
2023-05-23T02:15:05.894Z,26.90
2023-05-23T02:27:06.343Z,28.90
2023-05-23T02:39:06.822Z,25.20
2023-05-23T02:51:07.286Z,22.40
2023-05-23T03:03:07.810Z,24.50
2023-05-23T03:15:08.133Z,25.40
2023-05-23T03:27:08.633Z,30.00
2023-05-23T03:39:09.054Z,27.40
2023-05-23T03:51:09.514Z,26.60
2023-05-23T04:03:10.139Z,28.60
2023-05-23T04:15:10.439Z,29.20
2023-05-23T04:27:10.961Z,27.20
2023-05-23T04:39:11.343Z,31.80
2023-05-23T04:51:11.843Z,35.50
2023-05-23T05:03:12.243Z,38.30
2023-05-23T05:15:12.737Z,37.10
2023-05-23T05:27:13.180Z,37.20
2023-05-23T05:39:13.620Z,37.80
2023-05-23T05:51:14.093Z,28.30
2023-05-23T06:03:17.119Z,20.80
2023-05-23T06:15:14.963Z,16.70
2023-05-23T06:27:15.457Z,12.50
2023-05-23T06:39:15.875Z,10.10
2023-05-23T06:51:16.452Z,10.00
2023-05-23T07:03:16.806Z,15.80
2023-05-23T07:15:17.299Z,10.00
2023-05-23T07:27:17.682Z,13.20
2023-05-23T07:39:18.206Z,8.80
2023-05-23T07:51:18.636Z,10.40
2023-05-23T08:03:19.253Z,8.00
2023-05-23T08:15:19.543Z,6.70
2023-05-23T08:27:19.971Z,6.50
2023-05-23T08:39:20.459Z,6.80
2023-05-23T08:51:20.901Z,9.00
2023-05-23T09:03:21.352Z,9.80
2023-05-23T09:15:21.847Z,6.50
2023-05-23T09:27:22.267Z,8.50
2023-05-23T09:39:22.712Z,7.50
2023-05-23T09:51:23.216Z,8.00
2023-05-23T10:03:23.652Z,8.30
2023-05-23T10:15:24.119Z,8.20
2023-05-23T10:27:24.559Z,9.30
2023-05-23T10:39:25.020Z,8.20
2023-05-23T10:51:25.457Z,8.00
2023-05-23T11:03:26.032Z,11.50
2023-05-23T11:15:26.381Z,9.90
2023-05-23T11:27:26.782Z,20.50
2023-05-23T11:56:44.653Z,21.00
2023-05-23T12:08:45.106Z,20.10
2023-05-23T12:20:45.588Z,21.30
2023-05-23T12:32:46.109Z,22.80
2023-05-23T12:44:46.532Z,15.30
2023-05-23T12:56:46.925Z,15.60
2023-05-23T13:08:47.439Z,11.50
2023-05-23T13:20:47.963Z,12.20
2023-05-23T13:32:49.561Z,11.90
2023-05-23T13:44:48.749Z,14.00
2023-05-23T13:56:49.255Z,17.30
2023-05-23T14:08:49.710Z,17.00
2023-05-23T14:20:50.153Z,16.00
2023-05-23T14:32:50.623Z,15.60
2023-05-23T14:44:51.033Z,14.50
2023-05-23T14:56:53.388Z,14.30
2023-05-23T15:08:51.985Z,13.20
2023-05-23T15:20:52.428Z,15.30
2023-05-23T15:32:55.799Z,12.00
2023-05-23T15:44:53.402Z,11.70
2023-05-23T15:56:53.761Z,9.20
2023-05-23T16:08:54.250Z,9.40
2023-05-23T16:20:54.768Z,10.60
2023-05-23T16:32:55.239Z,12.20
2023-05-23T16:44:55.628Z,16.40
2023-05-23T16:56:56.063Z,19.30
2023-05-23T17:08:56.531Z,19.40
2023-05-23T17:20:56.993Z,18.30
2023-05-23T17:32:57.477Z,20.50
2023-05-23T17:44:57.921Z,22.10
2023-05-23T17:56:58.332Z,20.60
2023-05-23T18:08:58.809Z,20.70
2023-05-23T18:20:59.245Z,25.70
2023-05-23T18:32:59.800Z,19.50
2023-05-23T18:45:00.150Z,23.20
2023-05-23T18:57:00.631Z,20.00
2023-05-23T19:09:01.075Z,20.30
2023-05-23T19:21:01.534Z,22.20
2023-05-23T19:33:01.992Z,23.00
2023-05-23T19:45:02.464Z,50.20
2023-05-23T19:57:02.881Z,22.20
2023-05-23T20:09:03.336Z,23.30
2023-05-23T20:21:05.177Z,26.10
2023-05-23T20:33:04.368Z,30.30
2023-05-23T20:45:04.689Z,28.30
2023-05-23T20:57:05.169Z,25.20
2023-05-23T21:09:05.598Z,26.30
2023-05-23T21:21:06.091Z,26.00
2023-05-23T21:33:06.531Z,27.10
2023-05-23T21:45:06.944Z,24.30
2023-05-23T21:57:07.430Z,26.20
2023-05-23T22:09:07.888Z,22.90
2023-05-23T22:21:08.320Z,25.80
2023-05-23T22:33:08.870Z,26.60
2023-05-23T22:45:09.239Z,27.70
2023-05-23T22:57:09.707Z,26.40
2023-05-23T23:09:10.191Z,26.10
2023-05-23T23:21:10.610Z,43.10
2023-05-23T23:33:11.073Z,33.50
2023-05-23T23:45:11.533Z,31.40
2023-05-23T23:57:11.963Z,28.30
